createdAt,value
2017-10-28T00:02:07.363Z,9.73
2017-10-28T00:04:33.662Z,8.60
2017-10-28T00:07:00.068Z,13.83
2017-10-28T00:09:26.388Z,10.20
2017-10-28T00:11:52.691Z,9.20
2017-10-28T00:14:19.739Z,11.80
2017-10-28T00:16:47.311Z,4.50
2017-10-28T00:19:14.827Z,10.60
2017-10-28T00:21:41.114Z,9.27
2017-10-28T00:24:07.406Z,8.47
2017-10-28T00:26:34.303Z,8.20
2017-10-28T00:29:00.595Z,9.00
2017-10-28T00:31:32.931Z,12.50
2017-10-28T00:34:05.197Z,11.50
2017-10-28T00:36:32.431Z,7.03
2017-10-28T00:38:59.486Z,9.00
2017-10-28T00:41:26.902Z,5.40
2017-10-28T00:43:53.571Z,3.73
2017-10-28T00:46:21.102Z,5.30
2017-10-28T00:48:47.844Z,4.77
2017-10-28T00:51:14.142Z,6.10
2017-10-28T00:53:40.446Z,4.40
2017-10-28T00:56:06.791Z,4.93
2017-10-28T00:58:33.830Z,6.40
2017-10-28T01:01:00.237Z,4.83
2017-10-28T01:03:26.667Z,5.30
2017-10-28T01:05:52.971Z,5.60
2017-10-28T01:08:20.015Z,10.03
2017-10-28T01:10:47.310Z,5.20
2017-10-28T01:13:13.812Z,4.67
2017-10-28T01:15:41.574Z,5.30
2017-10-28T01:18:08.439Z,5.13
2017-10-28T01:20:35.508Z,5.93
2017-10-28T01:23:02.307Z,7.67
2017-10-28T01:25:29.091Z,3.80
2017-10-28T01:27:55.387Z,3.40
2017-10-28T01:30:22.206Z,8.87
2017-10-28T01:32:48.498Z,4.53
2017-10-28T01:35:16.334Z,5.37
2017-10-28T01:37:43.188Z,7.77
2017-10-28T01:40:09.492Z,7.77
2017-10-28T01:42:36.117Z,6.67
2017-10-28T01:45:03.051Z,7.30
2017-10-28T01:47:30.108Z,11.77
2017-10-28T01:49:56.902Z,10.33
2017-10-28T01:52:23.195Z,4.33
2017-10-28T01:54:49.521Z,4.80
2017-10-28T01:57:16.597Z,4.93
2017-10-28T01:59:43.088Z,3.40
2017-10-28T02:02:10.251Z,6.37
2017-10-28T02:04:36.817Z,3.27
2017-10-28T02:07:03.226Z,9.30
2017-10-28T02:09:29.756Z,9.07
2017-10-28T02:11:56.575Z,8.43
2017-10-28T02:14:22.991Z,7.97
2017-10-28T02:16:49.371Z,9.07
2017-10-28T02:19:16.299Z,9.43
2017-10-28T02:21:42.634Z,5.53
2017-10-28T02:24:09.057Z,10.37
2017-10-28T02:26:35.908Z,6.77
2017-10-28T02:29:03.892Z,12.60
2017-10-28T02:31:30.237Z,8.77
2017-10-28T02:33:56.588Z,12.83
2017-10-28T02:36:23.242Z,9.13
2017-10-28T02:38:49.565Z,7.67
2017-10-28T02:41:16.551Z,9.13
2017-10-28T02:43:43.601Z,10.77
2017-10-28T02:46:11.303Z,5.97
2017-10-28T02:48:37.613Z,9.47
2017-10-28T02:51:04.316Z,12.17
2017-10-28T02:53:30.627Z,11.77
2017-10-28T02:55:56.923Z,11.77
2017-10-28T02:58:24.000Z,14.27
2017-10-28T03:00:50.331Z,11.73
2017-10-28T03:03:16.759Z,13.70
2017-10-28T03:05:43.851Z,13.07
2017-10-28T03:08:10.152Z,17.97
2017-10-28T03:10:37.579Z,13.00
2017-10-28T03:13:03.943Z,16.73
2017-10-28T03:15:31.649Z,14.83
2017-10-28T03:17:58.578Z,16.70
2017-10-28T03:20:24.918Z,11.97
2017-10-28T03:22:51.223Z,16.03
2017-10-28T03:25:18.208Z,19.77
2017-10-28T03:27:44.518Z,13.17
2017-10-28T03:30:11.562Z,16.13
2017-10-28T03:32:38.381Z,12.77
2017-10-28T03:35:06.070Z,14.20
2017-10-28T03:37:32.370Z,14.00
2017-10-28T03:39:59.038Z,15.80
2017-10-28T03:42:25.365Z,17.90
2017-10-28T03:44:52.279Z,14.63
2017-10-28T03:47:18.976Z,13.73
2017-10-28T03:49:45.275Z,16.80
2017-10-28T03:52:12.276Z,15.23
2017-10-28T03:54:39.323Z,10.77
2017-10-28T03:57:05.622Z,10.30
2017-10-28T03:59:31.946Z,13.10
2017-10-28T04:01:58.243Z,20.23
2017-10-28T04:04:25.845Z,13.77
2017-10-28T04:06:52.168Z,15.13
2017-10-28T04:09:19.007Z,20.27
2017-10-28T04:11:45.695Z,9.80
2017-10-28T04:14:11.983Z,11.97
2017-10-28T04:16:39.023Z,13.90
2017-10-28T04:19:06.510Z,14.67
2017-10-28T04:21:32.815Z,10.03
2017-10-28T04:23:59.854Z,18.60
2017-10-28T04:26:26.993Z,9.83
2017-10-28T04:28:53.303Z,10.80
2017-10-28T04:31:19.599Z,13.13
2017-10-28T04:33:46.719Z,12.10
2017-10-28T04:36:13.811Z,12.93
2017-10-28T04:38:40.898Z,12.63
2017-10-28T04:41:07.235Z,10.97
2017-10-28T04:43:34.083Z,12.10
2017-10-28T04:46:00.777Z,13.37
2017-10-28T04:48:27.803Z,12.67
2017-10-28T04:50:54.503Z,8.60
2017-10-28T04:53:20.805Z,14.07
2017-10-28T04:55:47.146Z,8.07
2017-10-28T04:58:13.825Z,11.27
2017-10-28T05:00:40.134Z,8.40
2017-10-28T05:03:07.203Z,9.80
2017-10-28T05:05:34.110Z,10.80
2017-10-28T05:08:00.455Z,10.73
2017-10-28T05:10:26.796Z,12.73
2017-10-28T05:12:53.175Z,8.90
2017-10-28T05:15:19.500Z,5.70
2017-10-28T05:17:47.219Z,8.93
2017-10-28T05:20:13.535Z,7.03
2017-10-28T05:22:39.864Z,5.80
2017-10-28T05:25:06.756Z,6.20
2017-10-28T05:27:33.754Z,9.37
2017-10-28T05:30:00.114Z,6.73
2017-10-28T05:32:27.271Z,12.77
2017-10-28T05:34:54.063Z,8.73
2017-10-28T05:37:21.109Z,5.47
2017-10-28T05:39:47.430Z,6.30
2017-10-28T05:42:14.238Z,5.40
2017-10-28T05:44:41.003Z,6.77
2017-10-28T05:47:08.549Z,5.63
2017-10-28T05:49:34.855Z,6.63
2017-10-28T05:52:02.601Z,9.27
2017-10-28T05:54:28.940Z,10.50
2017-10-28T05:56:55.243Z,9.87
2017-10-28T05:59:21.603Z,9.90
2017-10-28T06:01:47.911Z,6.93
2017-10-28T06:04:14.598Z,10.57
2017-10-28T06:06:40.910Z,15.43
2017-10-28T06:09:07.203Z,10.80
2017-10-28T06:11:33.533Z,14.33
2017-10-28T06:13:59.860Z,11.43
2017-10-28T06:16:26.299Z,7.70
2017-10-28T06:18:53.819Z,8.77
2017-10-28T06:21:20.125Z,14.33
2017-10-28T06:23:46.979Z,9.77
2017-10-28T06:26:13.742Z,5.90
2017-10-28T06:28:40.613Z,7.57
2017-10-28T06:31:06.918Z,10.23
2017-10-28T06:33:33.649Z,11.30
2017-10-28T06:36:00.442Z,10.40
2017-10-28T06:38:27.100Z,15.63
2017-10-28T06:40:54.507Z,12.30
2017-10-28T06:43:20.819Z,12.80
2017-10-28T06:45:47.600Z,9.47
2017-10-28T06:48:13.899Z,10.83
2017-10-28T06:50:41.238Z,10.90
2017-10-28T06:53:08.024Z,27.20
2017-10-28T06:55:34.358Z,18.77
2017-10-28T06:58:00.701Z,12.10
2017-10-28T07:00:27.572Z,14.27
2017-10-28T07:02:54.652Z,12.20
2017-10-28T07:05:21.445Z,12.70
2017-10-28T07:07:48.295Z,19.43
2017-10-28T07:10:15.059Z,8.60
2017-10-28T07:12:41.407Z,15.43
2017-10-28T07:15:07.805Z,15.30
2017-10-28T07:17:34.891Z,13.43
2017-10-28T07:20:01.777Z,14.20
2017-10-28T07:22:28.921Z,12.00
2017-10-28T07:24:55.660Z,11.10
2017-10-28T07:27:22.599Z,14.53
2017-10-28T07:29:49.609Z,11.80
2017-10-28T07:32:16.324Z,12.07
2017-10-28T07:34:44.186Z,11.10
2017-10-28T07:37:11.022Z,11.53
2017-10-28T07:39:37.794Z,16.50
2017-10-28T07:42:04.833Z,11.03
2017-10-28T07:44:31.140Z,16.20
2017-10-28T07:46:57.485Z,6.60
2017-10-28T07:49:23.814Z,10.60
2017-10-28T07:51:50.196Z,11.53
2017-10-28T07:54:17.403Z,13.57
2017-10-28T07:56:43.767Z,14.00
2017-10-28T07:59:10.532Z,11.40
2017-10-28T08:01:37.587Z,15.57
2017-10-28T08:04:10.555Z,17.20
2017-10-28T08:06:37.656Z,12.27
2017-10-28T08:09:04.031Z,11.13
2017-10-28T08:11:30.435Z,13.10
2017-10-28T08:13:56.808Z,9.70
2017-10-28T08:16:23.125Z,7.83
2017-10-28T08:18:50.801Z,13.00
2017-10-28T08:21:17.524Z,11.93
2017-10-28T08:23:43.879Z,12.17
2017-10-28T08:26:10.740Z,12.73
2017-10-28T08:28:37.527Z,10.60
2017-10-28T08:31:03.851Z,9.63
2017-10-28T08:33:31.496Z,9.10
2017-10-28T08:35:58.458Z,9.83
2017-10-28T08:38:24.769Z,9.53
2017-10-28T08:40:51.107Z,11.87
2017-10-28T08:43:17.450Z,11.97
2017-10-28T08:45:44.174Z,10.23
2017-10-28T08:48:10.507Z,9.97
2017-10-28T08:50:36.864Z,10.33
2017-10-28T08:53:03.307Z,11.40
2017-10-28T08:55:30.169Z,12.67
2017-10-28T08:57:56.879Z,7.97
2017-10-28T09:00:23.727Z,10.20
2017-10-28T09:02:50.481Z,9.70
2017-10-28T09:05:16.796Z,11.40
2017-10-28T09:07:43.671Z,10.40
2017-10-28T09:10:10.435Z,8.47
2017-10-28T09:12:36.749Z,8.80
2017-10-28T09:15:03.521Z,7.00
2017-10-28T09:17:30.607Z,9.67
2017-10-28T09:19:57.502Z,5.67
2017-10-28T09:22:36.002Z,7.50
2017-10-28T09:25:02.661Z,11.03
2017-10-28T09:27:29.325Z,5.87
2017-10-28T09:29:56.044Z,6.97
2017-10-28T09:32:22.766Z,5.43
2017-10-28T09:34:49.562Z,6.43
2017-10-28T09:37:16.228Z,11.10
2017-10-28T09:39:43.649Z,4.03
2017-10-28T09:42:09.967Z,5.13
2017-10-28T09:44:36.861Z,6.17
2017-10-28T09:47:04.322Z,3.90
2017-10-28T09:49:32.069Z,7.87
2017-10-28T09:51:58.823Z,5.17
2017-10-28T09:54:25.520Z,3.93
2017-10-28T09:56:51.844Z,8.93
2017-10-28T09:59:18.755Z,3.53
2017-10-28T10:01:45.605Z,5.60
2017-10-28T10:04:12.401Z,6.37
2017-10-28T10:06:39.196Z,5.63
2017-10-28T10:09:06.272Z,7.23
2017-10-28T10:11:33.775Z,4.57
2017-10-28T10:14:00.513Z,4.50
2017-10-28T10:16:27.318Z,4.27
2017-10-28T10:18:54.713Z,5.13
2017-10-28T10:21:21.033Z,8.30
2017-10-28T10:23:47.882Z,5.00
2017-10-28T10:26:14.538Z,4.40
2017-10-28T10:28:41.270Z,5.30
2017-10-28T10:31:07.960Z,21.00
2017-10-28T10:33:34.648Z,6.63
2017-10-28T10:36:02.124Z,6.33
2017-10-28T10:38:28.442Z,5.50
2017-10-28T10:40:55.486Z,3.40
2017-10-28T10:43:22.588Z,2.93
2017-10-28T10:45:48.909Z,2.70
2017-10-28T10:48:15.323Z,2.27
2017-10-28T10:50:42.828Z,2.67
2017-10-28T10:53:09.172Z,3.20
2017-10-28T10:55:35.503Z,1.80
2017-10-28T10:58:02.275Z,2.40
2017-10-28T11:00:28.585Z,3.40
2017-10-28T11:02:54.922Z,2.33
2017-10-28T11:05:21.706Z,2.90
2017-10-28T11:07:48.024Z,2.70
2017-10-28T11:10:14.699Z,3.97
2017-10-28T11:12:41.772Z,4.63
2017-10-28T11:15:08.557Z,3.47
2017-10-28T11:17:35.391Z,4.37
2017-10-28T11:20:02.035Z,12.23
2017-10-28T11:22:28.356Z,2.70
2017-10-28T11:24:54.678Z,3.67
2017-10-28T11:27:22.355Z,2.37
2017-10-28T11:29:48.653Z,2.40
2017-10-28T11:32:14.983Z,6.40
2017-10-28T11:34:42.179Z,4.47
2017-10-28T11:37:08.503Z,2.43
2017-10-28T11:39:35.591Z,3.13
2017-10-28T11:42:01.956Z,3.57
2017-10-28T11:44:28.344Z,5.77
2017-10-28T11:46:54.723Z,5.10
2017-10-28T11:49:21.411Z,2.87
2017-10-28T11:51:49.075Z,3.47
2017-10-28T11:54:16.142Z,2.13
2017-10-28T11:56:43.218Z,2.10
2017-10-28T11:59:10.203Z,2.40
2017-10-28T12:01:36.851Z,2.13
2017-10-28T12:04:03.203Z,2.80
2017-10-28T12:06:29.535Z,3.33
2017-10-28T12:08:56.965Z,4.77
2017-10-28T12:11:23.266Z,1.97
2017-10-28T12:13:50.089Z,2.40
2017-10-28T12:16:17.141Z,3.10
2017-10-28T12:18:44.612Z,4.83
2017-10-28T12:21:12.030Z,2.63
2017-10-28T12:23:38.352Z,3.20
2017-10-28T12:26:05.122Z,2.60
2017-10-28T12:28:31.921Z,8.00
2017-10-28T12:30:58.257Z,2.47
2017-10-28T12:33:24.567Z,2.50
2017-10-28T12:35:51.995Z,2.20
2017-10-28T12:38:18.737Z,3.33
2017-10-28T12:40:45.439Z,2.43
2017-10-28T12:43:12.199Z,3.00
2017-10-28T12:45:38.907Z,4.20
2017-10-28T12:48:05.256Z,4.80
2017-10-28T12:50:32.018Z,3.13
2017-10-28T12:52:58.967Z,4.13
2017-10-28T12:55:25.267Z,3.93
2017-10-28T12:57:51.575Z,5.30
2017-10-28T13:00:18.445Z,6.80
2017-10-28T13:02:44.745Z,5.00
2017-10-28T13:05:11.057Z,6.43
2017-10-28T13:07:37.414Z,4.80
2017-10-28T13:10:03.746Z,10.53
2017-10-28T13:12:30.411Z,5.23
2017-10-28T13:14:57.286Z,4.00
2017-10-28T13:17:24.025Z,3.80
2017-10-28T13:19:50.918Z,4.97
2017-10-28T13:22:17.732Z,4.10
2017-10-28T13:24:44.387Z,5.27
2017-10-28T13:27:11.878Z,3.70
2017-10-28T13:29:38.481Z,3.20
2017-10-28T13:32:04.800Z,3.07
2017-10-28T13:34:31.763Z,3.77
2017-10-28T13:36:58.087Z,3.17
2017-10-28T13:39:25.137Z,4.10
2017-10-28T13:41:51.444Z,4.20
2017-10-28T13:44:18.133Z,3.00
2017-10-28T13:46:44.912Z,9.97
2017-10-28T13:49:11.252Z,5.07
2017-10-28T13:51:37.555Z,4.97
2017-10-28T13:54:03.891Z,6.87
2017-10-28T13:56:30.213Z,4.10
2017-10-28T13:58:56.619Z,7.43
2017-10-28T14:01:22.962Z,8.53
2017-10-28T14:03:49.282Z,7.53
2017-10-28T14:06:15.971Z,4.10
2017-10-28T14:08:42.576Z,5.77
2017-10-28T14:11:09.475Z,7.10
2017-10-28T14:13:36.210Z,4.30
2017-10-28T14:16:02.531Z,4.30
2017-10-28T14:18:29.149Z,7.10
2017-10-28T14:20:55.823Z,16.50
2017-10-28T14:23:22.130Z,5.33
2017-10-28T14:25:48.447Z,6.30
2017-10-28T14:28:15.241Z,5.27
2017-10-28T14:30:41.548Z,4.30
2017-10-28T14:33:07.866Z,5.50
2017-10-28T14:35:34.631Z,4.60
2017-10-28T14:38:00.948Z,4.60
2017-10-28T14:40:27.743Z,4.90
2017-10-28T14:42:54.579Z,3.30
2017-10-28T14:45:20.891Z,6.00
2017-10-28T14:47:47.202Z,7.07
2017-10-28T14:50:14.578Z,4.10
2017-10-28T14:52:41.387Z,3.13
2017-10-28T14:55:07.681Z,4.00
2017-10-28T14:57:34.029Z,4.43
2017-10-28T15:00:00.971Z,5.30
2017-10-28T15:02:27.589Z,3.40
2017-10-28T15:04:54.313Z,4.07
2017-10-28T15:07:21.893Z,3.70
2017-10-28T15:09:48.717Z,2.30
2017-10-28T15:12:16.099Z,3.07
2017-10-28T15:14:42.403Z,4.80
2017-10-28T15:17:09.219Z,4.23
2017-10-28T15:19:35.839Z,3.10
2017-10-28T15:22:02.666Z,8.50
2017-10-28T15:24:29.708Z,6.17
2017-10-28T15:26:56.766Z,2.57
2017-10-28T15:29:24.244Z,5.83
2017-10-28T15:31:50.567Z,6.77
2017-10-28T15:34:17.989Z,3.77
2017-10-28T15:36:44.760Z,6.60
2017-10-28T15:39:11.539Z,3.73
2017-10-28T15:41:38.219Z,3.77
2017-10-28T15:44:04.529Z,5.20
2017-10-28T15:46:30.844Z,5.80
2017-10-28T15:48:57.278Z,3.13
2017-10-28T15:51:24.337Z,3.40
2017-10-28T15:53:51.105Z,1.80
2017-10-28T15:56:17.403Z,5.00
2017-10-28T15:58:44.791Z,2.30
2017-10-28T16:01:11.921Z,11.77
2017-10-28T16:03:38.985Z,5.60
2017-10-28T16:06:05.929Z,3.70
2017-10-28T16:08:33.367Z,10.97
2017-10-28T16:11:00.948Z,5.50
2017-10-28T16:13:28.455Z,3.67
2017-10-28T16:15:55.075Z,3.67
2017-10-28T16:18:22.634Z,5.00
2017-10-28T16:20:49.146Z,3.00
2017-10-28T16:23:16.625Z,4.90
2017-10-28T16:25:43.658Z,5.10
2017-10-28T16:28:10.582Z,5.20
2017-10-28T16:30:37.435Z,8.83
2017-10-28T16:33:03.753Z,6.40
2017-10-28T16:35:30.515Z,5.00
2017-10-28T16:37:57.384Z,5.57
2017-10-28T16:40:24.211Z,5.80
2017-10-28T16:42:51.021Z,5.10
2017-10-28T16:45:17.839Z,5.60
2017-10-28T16:47:44.879Z,6.90
2017-10-28T16:50:11.606Z,6.17
2017-10-28T16:52:38.259Z,15.70
2017-10-28T16:55:04.879Z,30.60
2017-10-28T16:57:31.718Z,61.30
2017-10-28T16:59:58.478Z,20.53
2017-10-28T17:02:24.801Z,3.50
2017-10-28T17:04:51.618Z,4.90
2017-10-28T17:07:19.100Z,4.03
2017-10-28T17:09:45.406Z,3.33
2017-10-28T17:12:12.951Z,2.27
2017-10-28T17:14:39.846Z,2.80
2017-10-28T17:17:06.295Z,3.03
2017-10-28T17:19:33.179Z,2.27
2017-10-28T17:21:59.602Z,2.03
2017-10-28T17:24:26.004Z,1.50
2017-10-28T17:26:52.442Z,2.10
2017-10-28T17:29:19.316Z,1.73
2017-10-28T17:31:45.717Z,1.77
2017-10-28T17:34:12.877Z,1.37
2017-10-28T17:36:40.031Z,2.03
2017-10-28T17:39:06.915Z,1.37
2017-10-28T17:41:34.246Z,1.53
2017-10-28T17:44:01.104Z,1.60
2017-10-28T17:46:27.507Z,2.47
2017-10-28T17:48:55.265Z,1.40
2017-10-28T17:51:21.597Z,1.33
2017-10-28T17:53:48.662Z,2.70
2017-10-28T17:56:15.371Z,2.33
2017-10-28T17:58:42.183Z,1.83
2017-10-28T18:01:08.523Z,1.47
2017-10-28T18:03:35.484Z,1.20
2017-10-28T18:06:02.495Z,1.30
2017-10-28T18:08:29.964Z,1.53
2017-10-28T18:10:57.394Z,1.30
2017-10-28T18:13:23.719Z,1.40
2017-10-28T18:15:50.349Z,1.30
2017-10-28T18:18:17.052Z,1.20
2017-10-28T18:20:44.133Z,1.13
2017-10-28T18:23:10.853Z,1.23
2017-10-28T18:25:37.915Z,1.30
2017-10-28T18:28:04.798Z,1.63
2017-10-28T18:30:32.594Z,2.30
2017-10-28T18:32:59.378Z,1.10
2017-10-28T18:35:26.083Z,3.87
2017-10-28T18:37:52.977Z,1.40
2017-10-28T18:40:19.302Z,3.60
2017-10-28T18:42:45.659Z,3.07
2017-10-28T18:45:12.039Z,2.10
2017-10-28T18:47:38.402Z,1.50
2017-10-28T18:50:05.527Z,2.47
2017-10-28T18:52:31.923Z,1.70
2017-10-28T18:54:58.708Z,1.70
2017-10-28T18:57:25.030Z,2.67
2017-10-28T18:59:51.327Z,3.53
2017-10-28T19:02:19.163Z,3.00
2017-10-28T19:04:46.687Z,1.40
2017-10-28T19:07:13.501Z,1.60
2017-10-28T19:09:41.108Z,2.30
2017-10-28T19:12:07.423Z,1.50
2017-10-28T19:14:33.743Z,2.20
2017-10-28T19:17:01.269Z,1.90
2017-10-28T19:19:28.092Z,1.93
2017-10-28T19:21:54.803Z,2.03
2017-10-28T19:24:21.873Z,2.53
2017-10-28T19:26:48.263Z,2.70
2017-10-28T19:29:15.304Z,1.30
2017-10-28T19:31:42.043Z,1.60
2017-10-28T19:34:08.351Z,5.23
2017-10-28T19:36:35.076Z,3.33
2017-10-28T19:39:01.880Z,1.60
2017-10-28T19:41:28.171Z,2.70
2017-10-28T19:43:54.507Z,2.03
2017-10-28T19:46:20.850Z,3.20
2017-10-28T19:48:47.204Z,1.87
2017-10-28T19:51:13.839Z,2.17
2017-10-28T19:53:40.476Z,1.90
2017-10-28T19:56:07.225Z,1.70
2017-10-28T19:58:34.051Z,9.77
2017-10-28T20:01:00.371Z,2.23
2017-10-28T20:03:27.851Z,4.27
2017-10-28T20:05:54.528Z,1.63
2017-10-28T20:08:20.842Z,4.17
2017-10-28T20:10:47.191Z,6.20
2017-10-28T20:13:13.643Z,1.93
2017-10-28T20:15:39.988Z,3.37
2017-10-28T20:18:06.889Z,2.70
2017-10-28T20:20:33.184Z,1.67
2017-10-28T20:22:59.492Z,3.03
2017-10-28T20:25:26.255Z,1.40
2017-10-28T20:27:52.885Z,2.50
2017-10-28T20:30:19.649Z,1.53
2017-10-28T20:32:45.967Z,1.13
2017-10-28T20:35:12.870Z,2.03
2017-10-28T20:37:39.925Z,1.10
2017-10-28T20:40:06.956Z,1.40
2017-10-28T20:42:34.057Z,1.53
2017-10-28T20:45:00.349Z,1.23
2017-10-28T20:47:27.124Z,2.43
2017-10-28T20:49:53.909Z,1.97
2017-10-28T20:52:21.372Z,9.43
2017-10-28T20:54:47.988Z,2.70
2017-10-28T20:57:14.821Z,1.47
2017-10-28T20:59:41.135Z,1.43
2017-10-28T21:02:08.192Z,1.63
2017-10-28T21:04:35.675Z,1.93
2017-10-28T21:07:02.387Z,2.13
2017-10-28T21:09:28.700Z,1.83
2017-10-28T21:11:55.019Z,2.90
2017-10-28T21:14:21.922Z,2.67
2017-10-28T21:16:49.334Z,3.00
2017-10-28T21:19:16.062Z,3.53
2017-10-28T21:21:42.362Z,2.77
2017-10-28T21:24:09.974Z,3.33
2017-10-28T21:26:36.275Z,2.90
2017-10-28T21:29:03.040Z,2.93
2017-10-28T21:31:29.609Z,1.83
2017-10-28T21:33:55.926Z,1.10
2017-10-28T21:36:22.561Z,1.00
2017-10-28T21:38:49.319Z,0.90
2017-10-28T21:41:15.620Z,0.80
2017-10-28T21:43:42.659Z,1.13
2017-10-28T21:46:09.826Z,1.00
2017-10-28T21:48:36.886Z,1.33
2017-10-28T21:51:03.327Z,1.20
2017-10-28T21:53:30.153Z,1.60
2017-10-28T21:55:57.207Z,1.20
2017-10-28T21:58:24.263Z,0.80
2017-10-28T22:00:51.340Z,1.00
2017-10-28T22:03:18.086Z,1.47
2017-10-28T22:05:44.926Z,1.63
2017-10-28T22:08:11.229Z,2.60
2017-10-28T22:10:37.571Z,1.00
2017-10-28T22:13:04.017Z,1.20
2017-10-28T22:15:31.108Z,1.23
2017-10-28T22:17:58.093Z,1.00
2017-10-28T22:20:24.411Z,0.90
2017-10-28T22:22:51.401Z,2.03
2017-10-28T22:25:20.107Z,1.00
2017-10-28T22:27:47.623Z,1.73
2017-10-28T22:30:14.355Z,0.90
2017-10-28T22:32:41.345Z,0.80
2017-10-28T22:35:08.260Z,1.03
2017-10-28T22:37:34.570Z,0.90
2017-10-28T22:40:00.894Z,0.90
2017-10-28T22:42:28.098Z,1.10
2017-10-28T22:44:54.401Z,0.80
2017-10-28T22:47:20.835Z,0.90
2017-10-28T22:49:47.185Z,0.80
2017-10-28T22:52:13.967Z,1.00
2017-10-28T22:54:40.271Z,1.00
2017-10-28T22:57:07.102Z,0.80
2017-10-28T22:59:33.744Z,1.37
2017-10-28T23:02:00.050Z,0.80
2017-10-28T23:04:27.039Z,0.90
2017-10-28T23:06:53.919Z,0.90
2017-10-28T23:09:20.243Z,2.07
2017-10-28T23:11:46.545Z,1.73
2017-10-28T23:14:13.366Z,0.90
2017-10-28T23:16:40.287Z,1.00
2017-10-28T23:19:07.030Z,0.90
2017-10-28T23:21:33.992Z,0.90
2017-10-28T23:24:00.327Z,0.80
2017-10-28T23:26:26.658Z,1.50
2017-10-28T23:28:53.458Z,0.90
2017-10-28T23:31:20.959Z,0.90
2017-10-28T23:33:47.256Z,0.80
2017-10-28T23:36:14.103Z,0.90
2017-10-28T23:38:41.163Z,2.87
2017-10-28T23:41:07.461Z,1.70
2017-10-28T23:43:33.775Z,1.07
2017-10-28T23:46:00.071Z,1.47
2017-10-28T23:48:27.085Z,1.00
2017-10-28T23:50:53.868Z,1.03
2017-10-28T23:53:20.655Z,0.93
2017-10-28T23:55:46.950Z,0.90
2017-10-28T23:58:13.586Z,1.37
